sensor_id;sensor_type;location;lat;lon;timestamp;P1;durP1;ratioP1;P2;durP2;ratioP2
58071;SDS011;60383;46.626;18.866;2022-08-30T00:01:48;5.43;;;4.60;;
58071;SDS011;60383;46.626;18.866;2022-08-30T00:04:06;7.38;;;4.68;;
58071;SDS011;60383;46.626;18.866;2022-08-30T00:06:32;7.43;;;5.20;;
58071;SDS011;60383;46.626;18.866;2022-08-30T00:08:57;7.25;;;5.55;;
58071;SDS011;60383;46.626;18.866;2022-08-30T00:11:26;8.77;;;5.68;;
58071;SDS011;60383;46.626;18.866;2022-08-30T00:13:53;6.90;;;5.80;;
58071;SDS011;60383;46.626;18.866;2022-08-30T00:16:21;7.05;;;5.97;;
58071;SDS011;60383;46.626;18.866;2022-08-30T00:18:48;7.20;;;5.60;;
58071;SDS011;60383;46.626;18.866;2022-08-30T00:21:13;8.10;;;5.65;;
58071;SDS011;60383;46.626;18.866;2022-08-30T00:23:39;8.60;;;6.22;;
58071;SDS011;60383;46.626;18.866;2022-08-30T00:26:06;7.00;;;6.20;;
58071;SDS011;60383;46.626;18.866;2022-08-30T00:28:32;8.52;;;6.63;;
58071;SDS011;60383;46.626;18.866;2022-08-30T00:30:58;8.00;;;6.25;;
58071;SDS011;60383;46.626;18.866;2022-08-30T00:33:26;10.80;;;7.22;;
58071;SDS011;60383;46.626;18.866;2022-08-30T00:35:52;10.07;;;7.05;;
58071;SDS011;60383;46.626;18.866;2022-08-30T00:38:18;9.02;;;6.75;;
58071;SDS011;60383;46.626;18.866;2022-08-30T00:40:43;7.82;;;6.72;;
58071;SDS011;60383;46.626;18.866;2022-08-30T00:43:16;8.23;;;7.03;;
58071;SDS011;60383;46.626;18.866;2022-08-30T00:45:44;9.88;;;6.60;;
58071;SDS011;60383;46.626;18.866;2022-08-30T00:48:10;9.82;;;7.15;;
58071;SDS011;60383;46.626;18.866;2022-08-30T00:50:38;10.95;;;6.60;;
58071;SDS011;60383;46.626;18.866;2022-08-30T00:53:07;10.05;;;6.97;;
58071;SDS011;60383;46.626;18.866;2022-08-30T00:55:35;8.85;;;6.78;;
58071;SDS011;60383;46.626;18.866;2022-08-30T00:58:01;12.35;;;7.05;;
58071;SDS011;60383;46.626;18.866;2022-08-30T01:00:29;8.05;;;6.50;;
58071;SDS011;60383;46.626;18.866;2022-08-30T01:02:56;8.50;;;6.38;;
58071;SDS011;60383;46.626;18.866;2022-08-30T01:05:22;9.20;;;6.60;;
58071;SDS011;60383;46.626;18.866;2022-08-30T01:07:48;10.15;;;7.00;;
58071;SDS011;60383;46.626;18.866;2022-08-30T01:10:14;8.07;;;7.00;;
58071;SDS011;60383;46.626;18.866;2022-08-30T01:12:41;8.93;;;6.75;;
58071;SDS011;60383;46.626;18.866;2022-08-30T01:15:07;9.10;;;6.60;;
58071;SDS011;60383;46.626;18.866;2022-08-30T01:17:34;8.70;;;6.43;;
58071;SDS011;60383;46.626;18.866;2022-08-30T01:22:33;7.88;;;6.78;;
58071;SDS011;60383;46.626;18.866;2022-08-30T01:25:07;11.02;;;7.30;;
58071;SDS011;60383;46.626;18.866;2022-08-30T01:27:35;8.55;;;7.32;;
58071;SDS011;60383;46.626;18.866;2022-08-30T01:30:05;9.50;;;7.25;;
58071;SDS011;60383;46.626;18.866;2022-08-30T01:32:31;9.40;;;8.43;;
58071;SDS011;60383;46.626;18.866;2022-08-30T01:35:03;10.55;;;9.07;;
58071;SDS011;60383;46.626;18.866;2022-08-30T01:37:29;10.10;;;8.38;;
58071;SDS011;60383;46.626;18.866;2022-08-30T01:39:56;7.10;;;6.40;;
58071;SDS011;60383;46.626;18.866;2022-08-30T01:42:22;14.43;;;12.90;;
58071;SDS011;60383;46.626;18.866;2022-08-30T01:44:48;13.27;;;9.85;;
58071;SDS011;60383;46.626;18.866;2022-08-30T01:47:14;10.63;;;8.07;;
58071;SDS011;60383;46.626;18.866;2022-08-30T01:49:42;8.82;;;6.97;;
58071;SDS011;60383;46.626;18.866;2022-08-30T01:52:09;10.40;;;9.02;;
58071;SDS011;60383;46.626;18.866;2022-08-30T01:54:36;10.80;;;8.55;;
58071;SDS011;60383;46.626;18.866;2022-08-30T01:57:04;9.05;;;7.68;;
58071;SDS011;60383;46.626;18.866;2022-08-30T01:59:31;8.45;;;7.55;;
58071;SDS011;60383;46.626;18.866;2022-08-30T02:01:57;7.80;;;7.00;;
58071;SDS011;60383;46.626;18.866;2022-08-30T02:04:23;8.00;;;7.20;;
58071;SDS011;60383;46.626;18.866;2022-08-30T02:06:50;10.75;;;6.97;;
58071;SDS011;60383;46.626;18.866;2022-08-30T02:09:17;8.32;;;6.95;;
58071;SDS011;60383;46.626;18.866;2022-08-30T02:11:42;9.10;;;8.18;;
58071;SDS011;60383;46.626;18.866;2022-08-30T02:14:08;9.32;;;8.38;;
58071;SDS011;60383;46.626;18.866;2022-08-30T02:16:34;10.45;;;7.22;;
58071;SDS011;60383;46.626;18.866;2022-08-30T02:18:59;8.10;;;7.30;;
58071;SDS011;60383;46.626;18.866;2022-08-30T02:21:25;8.40;;;6.82;;
58071;SDS011;60383;46.626;18.866;2022-08-30T02:23:51;8.10;;;7.28;;
58071;SDS011;60383;46.626;18.866;2022-08-30T02:26:17;7.78;;;6.97;;
58071;SDS011;60383;46.626;18.866;2022-08-30T02:28:43;9.07;;;7.32;;
58071;SDS011;60383;46.626;18.866;2022-08-30T02:31:09;9.80;;;7.20;;
58071;SDS011;60383;46.626;18.866;2022-08-30T02:33:35;7.10;;;6.40;;
58071;SDS011;60383;46.626;18.866;2022-08-30T02:36:02;9.02;;;6.85;;
58071;SDS011;60383;46.626;18.866;2022-08-30T02:38:29;8.13;;;7.03;;
58071;SDS011;60383;46.626;18.866;2022-08-30T02:40:55;14.88;;;13.32;;
58071;SDS011;60383;46.626;18.866;2022-08-30T02:43:20;7.80;;;6.90;;
58071;SDS011;60383;46.626;18.866;2022-08-30T02:45:46;7.53;;;6.82;;
58071;SDS011;60383;46.626;18.866;2022-08-30T02:48:12;9.05;;;6.97;;
58071;SDS011;60383;46.626;18.866;2022-08-30T02:50:39;7.75;;;6.95;;
58071;SDS011;60383;46.626;18.866;2022-08-30T02:53:05;7.30;;;6.50;;
58071;SDS011;60383;46.626;18.866;2022-08-30T02:55:31;7.95;;;6.95;;
58071;SDS011;60383;46.626;18.866;2022-08-30T02:57:56;7.80;;;7.00;;
58071;SDS011;60383;46.626;18.866;2022-08-30T03:00:22;8.10;;;7.22;;
58071;SDS011;60383;46.626;18.866;2022-08-30T03:02:47;7.15;;;6.45;;
58071;SDS011;60383;46.626;18.866;2022-08-30T03:05:13;9.05;;;6.75;;
58071;SDS011;60383;46.626;18.866;2022-08-30T03:07:40;7.72;;;6.70;;
58071;SDS011;60383;46.626;18.866;2022-08-30T03:10:06;9.30;;;6.65;;
58071;SDS011;60383;46.626;18.866;2022-08-30T03:12:32;8.73;;;6.97;;
58071;SDS011;60383;46.626;18.866;2022-08-30T03:14:58;7.80;;;6.97;;
58071;SDS011;60383;46.626;18.866;2022-08-30T03:17:23;7.68;;;6.65;;
58071;SDS011;60383;46.626;18.866;2022-08-30T03:19:49;9.80;;;7.90;;
58071;SDS011;60383;46.626;18.866;2022-08-30T03:22:14;8.38;;;6.97;;
58071;SDS011;60383;46.626;18.866;2022-08-30T03:24:40;8.27;;;6.90;;
58071;SDS011;60383;46.626;18.866;2022-08-30T03:27:05;7.88;;;6.70;;
58071;SDS011;60383;46.626;18.866;2022-08-30T03:29:32;8.45;;;7.03;;
58071;SDS011;60383;46.626;18.866;2022-08-30T03:31:58;8.15;;;7.30;;
58071;SDS011;60383;46.626;18.866;2022-08-30T03:34:24;8.93;;;7.57;;
58071;SDS011;60383;46.626;18.866;2022-08-30T03:36:50;7.80;;;7.00;;
58071;SDS011;60383;46.626;18.866;2022-08-30T03:39:17;7.75;;;6.95;;
58071;SDS011;60383;46.626;18.866;2022-08-30T03:41:43;7.30;;;6.43;;
58071;SDS011;60383;46.626;18.866;2022-08-30T03:44:09;9.38;;;7.15;;
58071;SDS011;60383;46.626;18.866;2022-08-30T03:46:36;7.97;;;7.15;;
58071;SDS011;60383;46.626;18.866;2022-08-30T03:49:02;8.38;;;7.43;;
58071;SDS011;60383;46.626;18.866;2022-08-30T03:51:27;8.93;;;7.38;;
58071;SDS011;60383;46.626;18.866;2022-08-30T03:53:53;10.00;;;7.22;;
58071;SDS011;60383;46.626;18.866;2022-08-30T03:56:18;8.45;;;7.20;;
58071;SDS011;60383;46.626;18.866;2022-08-30T03:58:44;8.70;;;7.53;;
58071;SDS011;60383;46.626;18.866;2022-08-30T04:01:10;9.27;;;7.55;;
58071;SDS011;60383;46.626;18.866;2022-08-30T04:03:35;9.77;;;7.60;;
58071;SDS011;60383;46.626;18.866;2022-08-30T04:06:01;10.15;;;7.82;;
58071;SDS011;60383;46.626;18.866;2022-08-30T04:08:27;9.77;;;7.90;;
58071;SDS011;60383;46.626;18.866;2022-08-30T04:10:53;9.27;;;7.95;;
58071;SDS011;60383;46.626;18.866;2022-08-30T04:13:20;8.70;;;7.55;;
58071;SDS011;60383;46.626;18.866;2022-08-30T04:15:47;9.90;;;7.70;;
58071;SDS011;60383;46.626;18.866;2022-08-30T04:18:13;8.38;;;7.43;;
58071;SDS011;60383;46.626;18.866;2022-08-30T04:20:38;8.30;;;7.50;;
58071;SDS011;60383;46.626;18.866;2022-08-30T04:23:04;8.55;;;7.60;;
58071;SDS011;60383;46.626;18.866;2022-08-30T04:25:32;9.05;;;8.15;;
58071;SDS011;60383;46.626;18.866;2022-08-30T04:28:01;9.18;;;8.20;;
58071;SDS011;60383;46.626;18.866;2022-08-30T04:30:27;9.82;;;8.45;;
58071;SDS011;60383;46.626;18.866;2022-08-30T04:32:53;10.15;;;7.97;;
58071;SDS011;60383;46.626;18.866;2022-08-30T04:35:18;10.98;;;8.25;;
58071;SDS011;60383;46.626;18.866;2022-08-30T04:37:44;10.75;;;7.78;;
58071;SDS011;60383;46.626;18.866;2022-08-30T04:40:09;9.73;;;8.32;;
58071;SDS011;60383;46.626;18.866;2022-08-30T04:42:35;9.68;;;8.27;;
58071;SDS011;60383;46.626;18.866;2022-08-30T04:45:07;10.30;;;8.43;;
58071;SDS011;60383;46.626;18.866;2022-08-30T04:47:34;10.82;;;9.23;;
58071;SDS011;60383;46.626;18.866;2022-08-30T04:50:00;9.57;;;8.43;;
58071;SDS011;60383;46.626;18.866;2022-08-30T04:52:27;10.27;;;8.25;;
58071;SDS011;60383;46.626;18.866;2022-08-30T04:54:56;10.70;;;8.20;;
58071;SDS011;60383;46.626;18.866;2022-08-30T04:57:23;9.07;;;8.05;;
58071;SDS011;60383;46.626;18.866;2022-08-30T04:59:49;9.68;;;8.05;;
58071;SDS011;60383;46.626;18.866;2022-08-30T05:02:15;9.23;;;8.20;;
58071;SDS011;60383;46.626;18.866;2022-08-30T05:04:40;10.00;;;7.28;;
58071;SDS011;60383;46.626;18.866;2022-08-30T05:07:25;9.25;;;7.65;;
58071;SDS011;60383;46.626;18.866;2022-08-30T05:09:51;9.23;;;7.45;;
58071;SDS011;60383;46.626;18.866;2022-08-30T05:12:16;10.45;;;7.97;;
58071;SDS011;60383;46.626;18.866;2022-08-30T05:14:42;9.25;;;8.20;;
58071;SDS011;60383;46.626;18.866;2022-08-30T05:17:07;9.77;;;8.85;;
58071;SDS011;60383;46.626;18.866;2022-08-30T05:19:32;8.98;;;7.90;;
58071;SDS011;60383;46.626;18.866;2022-08-30T05:21:58;9.68;;;7.93;;
58071;SDS011;60383;46.626;18.866;2022-08-30T05:24:24;9.50;;;8.60;;
58071;SDS011;60383;46.626;18.866;2022-08-30T05:26:50;9.93;;;8.65;;
58071;SDS011;60383;46.626;18.866;2022-08-30T05:29:15;9.50;;;8.25;;
58071;SDS011;60383;46.626;18.866;2022-08-30T05:31:42;10.50;;;8.25;;
58071;SDS011;60383;46.626;18.866;2022-08-30T05:34:11;10.40;;;8.63;;
58071;SDS011;60383;46.626;18.866;2022-08-30T05:36:37;10.95;;;9.10;;
58071;SDS011;60383;46.626;18.866;2022-08-30T05:39:06;10.32;;;8.38;;
58071;SDS011;60383;46.626;18.866;2022-08-30T05:41:32;9.57;;;8.25;;
58071;SDS011;60383;46.626;18.866;2022-08-30T05:44:00;10.50;;;9.00;;
58071;SDS011;60383;46.626;18.866;2022-08-30T05:46:27;12.90;;;8.75;;
58071;SDS011;60383;46.626;18.866;2022-08-30T05:48:57;10.40;;;8.43;;
58071;SDS011;60383;46.626;18.866;2022-08-30T05:51:26;12.10;;;8.73;;
58071;SDS011;60383;46.626;18.866;2022-08-30T05:53:53;9.50;;;8.40;;
58071;SDS011;60383;46.626;18.866;2022-08-30T05:56:21;9.65;;;8.27;;
58071;SDS011;60383;46.626;18.866;2022-08-30T05:58:49;10.10;;;8.77;;
58071;SDS011;60383;46.626;18.866;2022-08-30T06:01:19;10.60;;;9.25;;
58071;SDS011;60383;46.626;18.866;2022-08-30T06:03:47;11.75;;;9.30;;
58071;SDS011;60383;46.626;18.866;2022-08-30T06:06:13;9.68;;;8.63;;
58071;SDS011;60383;46.626;18.866;2022-08-30T06:08:38;10.65;;;8.60;;
58071;SDS011;60383;46.626;18.866;2022-08-30T06:11:04;10.32;;;8.82;;
58071;SDS011;60383;46.626;18.866;2022-08-30T06:13:29;11.85;;;8.48;;
58071;SDS011;60383;46.626;18.866;2022-08-30T06:15:56;11.02;;;9.32;;
58071;SDS011;60383;46.626;18.866;2022-08-30T06:18:21;9.68;;;8.65;;
58071;SDS011;60383;46.626;18.866;2022-08-30T06:20:47;11.57;;;9.23;;
58071;SDS011;60383;46.626;18.866;2022-08-30T06:23:13;10.68;;;8.95;;
58071;SDS011;60383;46.626;18.866;2022-08-30T06:25:41;10.98;;;8.82;;
58071;SDS011;60383;46.626;18.866;2022-08-30T06:28:08;11.13;;;8.80;;
58071;SDS011;60383;46.626;18.866;2022-08-30T06:30:34;10.68;;;9.40;;
58071;SDS011;60383;46.626;18.866;2022-08-30T06:33:00;9.52;;;8.48;;
58071;SDS011;60383;46.626;18.866;2022-08-30T06:35:26;9.82;;;8.63;;
58071;SDS011;60383;46.626;18.866;2022-08-30T06:37:52;9.30;;;8.30;;
58071;SDS011;60383;46.626;18.866;2022-08-30T06:40:19;9.25;;;8.35;;
58071;SDS011;60383;46.626;18.866;2022-08-30T06:42:45;9.50;;;8.43;;
58071;SDS011;60383;46.626;18.866;2022-08-30T06:45:11;10.40;;;9.23;;
58071;SDS011;60383;46.626;18.866;2022-08-30T06:47:37;11.40;;;8.48;;
58071;SDS011;60383;46.626;18.866;2022-08-30T06:50:03;11.85;;;9.48;;
58071;SDS011;60383;46.626;18.866;2022-08-30T06:52:28;10.13;;;8.95;;
58071;SDS011;60383;46.626;18.866;2022-08-30T06:54:54;12.35;;;8.80;;
58071;SDS011;60383;46.626;18.866;2022-08-30T06:57:22;9.73;;;8.45;;
58071;SDS011;60383;46.626;18.866;2022-08-30T06:59:48;11.88;;;8.88;;
58071;SDS011;60383;46.626;18.866;2022-08-30T07:02:13;9.75;;;8.73;;
58071;SDS011;60383;46.626;18.866;2022-08-30T07:04:38;9.80;;;8.60;;
58071;SDS011;60383;46.626;18.866;2022-08-30T07:07:04;9.55;;;8.38;;
58071;SDS011;60383;46.626;18.866;2022-08-30T07:09:29;11.13;;;9.40;;
58071;SDS011;60383;46.626;18.866;2022-08-30T07:11:55;9.75;;;8.75;;
58071;SDS011;60383;46.626;18.866;2022-08-30T07:14:20;10.77;;;8.43;;
58071;SDS011;60383;46.626;18.866;2022-08-30T07:16:46;10.38;;;8.68;;
58071;SDS011;60383;46.626;18.866;2022-08-30T07:19:12;10.60;;;9.50;;
58071;SDS011;60383;46.626;18.866;2022-08-30T07:21:39;13.23;;;8.57;;
58071;SDS011;60383;46.626;18.866;2022-08-30T07:24:10;11.07;;;8.95;;
58071;SDS011;60383;46.626;18.866;2022-08-30T07:26:38;9.70;;;8.32;;
58071;SDS011;60383;46.626;18.866;2022-08-30T07:29:06;11.00;;;8.87;;
58071;SDS011;60383;46.626;18.866;2022-08-30T07:31:32;10.73;;;9.15;;
58071;SDS011;60383;46.626;18.866;2022-08-30T07:34:00;10.82;;;9.05;;
58071;SDS011;60383;46.626;18.866;2022-08-30T07:36:29;10.20;;;9.10;;
58071;SDS011;60383;46.626;18.866;2022-08-30T07:38:55;10.00;;;8.90;;
58071;SDS011;60383;46.626;18.866;2022-08-30T07:41:24;11.60;;;8.70;;
58071;SDS011;60383;46.626;18.866;2022-08-30T07:43:52;10.15;;;8.35;;
58071;SDS011;60383;46.626;18.866;2022-08-30T07:46:18;10.15;;;9.02;;
58071;SDS011;60383;46.626;18.866;2022-08-30T07:48:45;12.05;;;8.65;;
58071;SDS011;60383;46.626;18.866;2022-08-30T07:51:11;10.30;;;8.70;;
58071;SDS011;60383;46.626;18.866;2022-08-30T07:53:38;9.10;;;8.15;;
58071;SDS011;60383;46.626;18.866;2022-08-30T07:56:04;9.15;;;8.15;;
58071;SDS011;60383;46.626;18.866;2022-08-30T07:58:30;9.50;;;8.45;;
58071;SDS011;60383;46.626;18.866;2022-08-30T08:00:56;11.85;;;8.65;;
58071;SDS011;60383;46.626;18.866;2022-08-30T08:03:24;9.65;;;8.65;;
58071;SDS011;60383;46.626;18.866;2022-08-30T08:05:50;10.38;;;8.35;;
58071;SDS011;60383;46.626;18.866;2022-08-30T08:08:17;9.20;;;8.30;;
58071;SDS011;60383;46.626;18.866;2022-08-30T08:10:43;10.15;;;8.25;;
58071;SDS011;60383;46.626;18.866;2022-08-30T08:13:08;9.15;;;8.10;;
58071;SDS011;60383;46.626;18.866;2022-08-30T08:15:34;9.38;;;8.43;;
58071;SDS011;60383;46.626;18.866;2022-08-30T08:17:59;10.23;;;8.93;;
58071;SDS011;60383;46.626;18.866;2022-08-30T08:20:25;9.57;;;8.20;;
58071;SDS011;60383;46.626;18.866;2022-08-30T08:22:51;8.35;;;7.45;;
58071;SDS011;60383;46.626;18.866;2022-08-30T08:25:17;10.00;;;8.75;;
58071;SDS011;60383;46.626;18.866;2022-08-30T08:27:45;10.48;;;8.02;;
58071;SDS011;60383;46.626;18.866;2022-08-30T08:30:12;9.32;;;8.30;;
58071;SDS011;60383;46.626;18.866;2022-08-30T08:32:38;11.02;;;8.93;;
58071;SDS011;60383;46.626;18.866;2022-08-30T08:35:04;13.32;;;8.20;;
58071;SDS011;60383;46.626;18.866;2022-08-30T08:37:30;8.98;;;8.07;;
58071;SDS011;60383;46.626;18.866;2022-08-30T08:39:56;8.45;;;7.60;;
58071;SDS011;60383;46.626;18.866;2022-08-30T08:45:00;11.05;;;7.65;;
58071;SDS011;60383;46.626;18.866;2022-08-30T08:49:58;8.75;;;7.85;;
58071;SDS011;60383;46.626;18.866;2022-08-30T08:52:34;9.95;;;7.57;;
58071;SDS011;60383;46.626;18.866;2022-08-30T08:55:22;8.38;;;7.38;;
58071;SDS011;60383;46.626;18.866;2022-08-30T08:57:48;8.82;;;7.93;;
58071;SDS011;60383;46.626;18.866;2022-08-30T09:00:16;11.30;;;7.55;;
58071;SDS011;60383;46.626;18.866;2022-08-30T09:02:43;9.80;;;7.65;;
58071;SDS011;60383;46.626;18.866;2022-08-30T09:05:17;8.82;;;7.32;;
58071;SDS011;60383;46.626;18.866;2022-08-30T09:07:47;10.65;;;8.07;;
58071;SDS011;60383;46.626;18.866;2022-08-30T09:10:16;9.70;;;6.90;;
58071;SDS011;60383;46.626;18.866;2022-08-30T09:12:42;11.05;;;7.90;;
58071;SDS011;60383;46.626;18.866;2022-08-30T09:15:15;8.80;;;6.90;;
58071;SDS011;60383;46.626;18.866;2022-08-30T09:17:53;8.43;;;7.50;;
58071;SDS011;60383;46.626;18.866;2022-08-30T09:20:28;8.63;;;7.07;;
58071;SDS011;60383;46.626;18.866;2022-08-30T09:22:56;10.48;;;6.97;;
58071;SDS011;60383;46.626;18.866;2022-08-30T09:25:24;7.43;;;6.18;;
58071;SDS011;60383;46.626;18.866;2022-08-30T09:27:53;8.15;;;6.90;;
58071;SDS011;60383;46.626;18.866;2022-08-30T09:30:31;7.55;;;5.57;;
58071;SDS011;60383;46.626;18.866;2022-08-30T09:33:02;8.38;;;6.10;;
58071;SDS011;60383;46.626;18.866;2022-08-30T09:35:46;6.15;;;5.55;;
58071;SDS011;60383;46.626;18.866;2022-08-30T09:38:16;6.97;;;6.28;;
58071;SDS011;60383;46.626;18.866;2022-08-30T09:43:20;7.75;;;6.10;;
58071;SDS011;60383;46.626;18.866;2022-08-30T09:51:13;10.38;;;6.05;;
58071;SDS011;60383;46.626;18.866;2022-08-30T10:02:05;6.38;;;5.60;;
58071;SDS011;60383;46.626;18.866;2022-08-30T10:04:54;6.03;;;5.45;;
58071;SDS011;60383;46.626;18.866;2022-08-30T10:07:46;5.80;;;5.20;;
58071;SDS011;60383;46.626;18.866;2022-08-30T10:23:21;6.45;;;5.70;;
58071;SDS011;60383;46.626;18.866;2022-08-30T10:26:04;6.45;;;5.30;;
58071;SDS011;60383;46.626;18.866;2022-08-30T10:32:04;5.97;;;5.38;;
58071;SDS011;60383;46.626;18.866;2022-08-30T10:34:39;5.65;;;5.07;;
58071;SDS011;60383;46.626;18.866;2022-08-30T10:37:20;6.03;;;5.10;;
58071;SDS011;60383;46.626;18.866;2022-08-30T10:39:50;5.68;;;4.95;;
58071;SDS011;60383;46.626;18.866;2022-08-30T10:42:24;6.50;;;5.00;;
58071;SDS011;60383;46.626;18.866;2022-08-30T10:44:56;6.45;;;4.78;;
58071;SDS011;60383;46.626;18.866;2022-08-30T10:47:34;5.15;;;4.68;;
58071;SDS011;60383;46.626;18.866;2022-08-30T10:50:09;5.65;;;4.85;;
58071;SDS011;60383;46.626;18.866;2022-08-30T10:56:04;6.05;;;4.93;;
58071;SDS011;60383;46.626;18.866;2022-08-30T10:58:32;5.57;;;4.60;;
58071;SDS011;60383;46.626;18.866;2022-08-30T11:04:19;5.30;;;4.80;;
58071;SDS011;60383;46.626;18.866;2022-08-30T11:10:03;8.70;;;4.85;;
58071;SDS011;60383;46.626;18.866;2022-08-30T11:13:03;6.13;;;4.35;;
58071;SDS011;60383;46.626;18.866;2022-08-30T11:15:34;6.45;;;4.28;;
58071;SDS011;60383;46.626;18.866;2022-08-30T11:18:16;4.90;;;4.15;;
58071;SDS011;60383;46.626;18.866;2022-08-30T11:20:49;6.07;;;4.40;;
58071;SDS011;60383;46.626;18.866;2022-08-30T11:33:51;5.95;;;4.25;;
58071;SDS011;60383;46.626;18.866;2022-08-30T11:44:48;4.73;;;4.23;;
58071;SDS011;60383;46.626;18.866;2022-08-30T11:52:55;8.45;;;4.43;;
58071;SDS011;60383;46.626;18.866;2022-08-30T11:55:43;8.73;;;4.65;;
58071;SDS011;60383;46.626;18.866;2022-08-30T12:03:43;5.18;;;4.07;;
58071;SDS011;60383;46.626;18.866;2022-08-30T12:06:42;5.13;;;4.32;;
58071;SDS011;60383;46.626;18.866;2022-08-30T12:09:07;5.78;;;3.90;;
58071;SDS011;60383;46.626;18.866;2022-08-30T12:14:00;7.38;;;4.05;;
58071;SDS011;60383;46.626;18.866;2022-08-30T12:16:34;5.97;;;4.05;;
58071;SDS011;60383;46.626;18.866;2022-08-30T12:19:25;7.32;;;4.15;;
58071;SDS011;60383;46.626;18.866;2022-08-30T12:21:57;4.25;;;3.80;;
58071;SDS011;60383;46.626;18.866;2022-08-30T12:24:31;5.72;;;4.28;;
58071;SDS011;60383;46.626;18.866;2022-08-30T12:27:00;5.22;;;4.13;;
58071;SDS011;60383;46.626;18.866;2022-08-30T12:29:49;4.43;;;3.55;;
58071;SDS011;60383;46.626;18.866;2022-08-30T12:32:20;4.25;;;3.85;;
58071;SDS011;60383;46.626;18.866;2022-08-30T12:39:47;5.30;;;3.53;;
58071;SDS011;60383;46.626;18.866;2022-08-30T12:42:27;4.50;;;3.85;;
58071;SDS011;60383;46.626;18.866;2022-08-30T12:44:56;4.82;;;3.65;;
58071;SDS011;60383;46.626;18.866;2022-08-30T12:47:29;4.38;;;3.70;;
58071;SDS011;60383;46.626;18.866;2022-08-30T12:50:05;6.35;;;4.03;;
58071;SDS011;60383;46.626;18.866;2022-08-30T12:52:34;4.40;;;3.80;;
58071;SDS011;60383;46.626;18.866;2022-08-30T12:55:16;4.40;;;3.90;;
58071;SDS011;60383;46.626;18.866;2022-08-30T12:57:54;5.32;;;3.50;;
58071;SDS011;60383;46.626;18.866;2022-08-30T13:02:53;5.72;;;3.90;;
58071;SDS011;60383;46.626;18.866;2022-08-30T13:10:47;4.90;;;3.78;;
58071;SDS011;60383;46.626;18.866;2022-08-30T13:18:52;5.40;;;3.85;;
58071;SDS011;60383;46.626;18.866;2022-08-30T13:21:30;4.28;;;3.60;;
58071;SDS011;60383;46.626;18.866;2022-08-30T13:23:58;5.32;;;3.80;;
58071;SDS011;60383;46.626;18.866;2022-08-30T13:26:25;5.10;;;3.80;;
58071;SDS011;60383;46.626;18.866;2022-08-30T13:28:55;5.72;;;3.80;;
58071;SDS011;60383;46.626;18.866;2022-08-30T13:31:23;5.82;;;3.75;;
58071;SDS011;60383;46.626;18.866;2022-08-30T13:33:51;4.78;;;3.70;;
58071;SDS011;60383;46.626;18.866;2022-08-30T13:36:18;4.13;;;3.45;;
58071;SDS011;60383;46.626;18.866;2022-08-30T13:38:49;5.60;;;3.70;;
58071;SDS011;60383;46.626;18.866;2022-08-30T13:41:14;4.32;;;3.17;;
58071;SDS011;60383;46.626;18.866;2022-08-30T13:43:40;5.95;;;3.60;;
58071;SDS011;60383;46.626;18.866;2022-08-30T13:46:06;4.72;;;3.50;;
58071;SDS011;60383;46.626;18.866;2022-08-30T13:48:33;4.55;;;3.63;;
58071;SDS011;60383;46.626;18.866;2022-08-30T13:51:00;5.13;;;3.75;;
58071;SDS011;60383;46.626;18.866;2022-08-30T13:53:25;5.65;;;3.78;;
58071;SDS011;60383;46.626;18.866;2022-08-30T13:55:51;4.60;;;3.40;;
58071;SDS011;60383;46.626;18.866;2022-08-30T13:58:17;4.85;;;3.80;;
58071;SDS011;60383;46.626;18.866;2022-08-30T14:00:42;4.57;;;3.88;;
58071;SDS011;60383;46.626;18.866;2022-08-30T14:03:10;4.20;;;3.60;;
58071;SDS011;60383;46.626;18.866;2022-08-30T14:05:37;5.63;;;3.15;;
58071;SDS011;60383;46.626;18.866;2022-08-30T14:08:04;3.45;;;3.03;;
58071;SDS011;60383;46.626;18.866;2022-08-30T14:10:31;3.78;;;3.35;;
58071;SDS011;60383;46.626;18.866;2022-08-30T14:12:57;4.00;;;3.38;;
58071;SDS011;60383;46.626;18.866;2022-08-30T14:15:22;3.95;;;3.30;;
58071;SDS011;60383;46.626;18.866;2022-08-30T14:17:49;4.70;;;3.45;;
58071;SDS011;60383;46.626;18.866;2022-08-30T14:20:14;4.90;;;3.50;;
58071;SDS011;60383;46.626;18.866;2022-08-30T14:22:40;5.55;;;3.42;;
58071;SDS011;60383;46.626;18.866;2022-08-30T14:25:06;4.72;;;3.30;;
58071;SDS011;60383;46.626;18.866;2022-08-30T14:27:31;3.72;;;3.38;;
58071;SDS011;60383;46.626;18.866;2022-08-30T14:29:57;4.13;;;3.40;;
58071;SDS011;60383;46.626;18.866;2022-08-30T14:32:23;5.50;;;3.33;;
58071;SDS011;60383;46.626;18.866;2022-08-30T14:34:48;3.50;;;3.13;;
58071;SDS011;60383;46.626;18.866;2022-08-30T14:37:14;6.50;;;3.22;;
58071;SDS011;60383;46.626;18.866;2022-08-30T14:39:40;4.50;;;3.38;;
58071;SDS011;60383;46.626;18.866;2022-08-30T14:42:05;3.53;;;3.00;;
58071;SDS011;60383;46.626;18.866;2022-08-30T14:44:31;4.55;;;3.05;;
58071;SDS011;60383;46.626;18.866;2022-08-30T14:46:57;7.40;;;2.90;;
58071;SDS011;60383;46.626;18.866;2022-08-30T14:49:22;5.15;;;3.08;;
58071;SDS011;60383;46.626;18.866;2022-08-30T14:51:49;3.85;;;2.88;;
58071;SDS011;60383;46.626;18.866;2022-08-30T14:54:16;3.17;;;2.80;;
58071;SDS011;60383;46.626;18.866;2022-08-30T14:56:45;3.33;;;3.03;;
58071;SDS011;60383;46.626;18.866;2022-08-30T14:59:11;5.63;;;2.80;;
58071;SDS011;60383;46.626;18.866;2022-08-30T15:01:37;3.88;;;3.28;;
58071;SDS011;60383;46.626;18.866;2022-08-30T15:04:04;5.18;;;2.85;;
58071;SDS011;60383;46.626;18.866;2022-08-30T15:06:31;6.82;;;3.85;;
58071;SDS011;60383;46.626;18.866;2022-08-30T15:08:57;12.38;;;11.05;;
58071;SDS011;60383;46.626;18.866;2022-08-30T15:11:23;4.93;;;3.28;;
58071;SDS011;60383;46.626;18.866;2022-08-30T15:13:50;3.33;;;3.03;;
58071;SDS011;60383;46.626;18.866;2022-08-30T15:18:46;4.13;;;3.00;;
58071;SDS011;60383;46.626;18.866;2022-08-30T15:21:12;4.18;;;2.67;;
58071;SDS011;60383;46.626;18.866;2022-08-30T15:23:37;4.13;;;3.15;;
58071;SDS011;60383;46.626;18.866;2022-08-30T15:26:03;5.10;;;3.15;;
58071;SDS011;60383;46.626;18.866;2022-08-30T15:28:29;4.03;;;2.90;;
58071;SDS011;60383;46.626;18.866;2022-08-30T15:30:55;6.20;;;3.03;;
58071;SDS011;60383;46.626;18.866;2022-08-30T15:33:21;3.20;;;2.75;;
58071;SDS011;60383;46.626;18.866;2022-08-30T15:35:47;3.13;;;2.75;;
58071;SDS011;60383;46.626;18.866;2022-08-30T15:38:13;5.90;;;2.97;;
58071;SDS011;60383;46.626;18.866;2022-08-30T15:40:39;5.05;;;2.85;;
58071;SDS011;60383;46.626;18.866;2022-08-30T15:43:04;4.50;;;2.75;;
58071;SDS011;60383;46.626;18.866;2022-08-30T15:45:30;3.83;;;2.70;;
58071;SDS011;60383;46.626;18.866;2022-08-30T15:47:58;5.45;;;3.20;;
58071;SDS011;60383;46.626;18.866;2022-08-30T15:50:24;2.67;;;2.47;;
58071;SDS011;60383;46.626;18.866;2022-08-30T15:52:49;3.13;;;2.83;;
58071;SDS011;60383;46.626;18.866;2022-08-30T15:55:15;3.72;;;2.97;;
58071;SDS011;60383;46.626;18.866;2022-08-30T15:57:40;4.88;;;3.00;;
58071;SDS011;60383;46.626;18.866;2022-08-30T16:00:06;6.80;;;2.97;;
58071;SDS011;60383;46.626;18.866;2022-08-30T16:02:33;3.22;;;2.70;;
58071;SDS011;60383;46.626;18.866;2022-08-30T16:04:59;3.38;;;2.90;;
58071;SDS011;60383;46.626;18.866;2022-08-30T16:07:24;5.93;;;3.00;;
58071;SDS011;60383;46.626;18.866;2022-08-30T16:09:50;3.47;;;2.78;;
58071;SDS011;60383;46.626;18.866;2022-08-30T16:12:15;4.95;;;2.90;;
58071;SDS011;60383;46.626;18.866;2022-08-30T16:14:41;5.38;;;2.70;;
58071;SDS011;60383;46.626;18.866;2022-08-30T16:17:06;4.88;;;3.03;;
58071;SDS011;60383;46.626;18.866;2022-08-30T16:19:32;6.78;;;3.00;;